sensor_id;sensor_type;location;lat;lon;timestamp;pressure;altitude;pressure_sealevel;temperature;humidity
45255;BME280;30989;52.078;21.014;2022-09-09T00:04:29;166634.22;;;10.97;100.00
45255;BME280;30989;52.078;21.014;2022-09-09T00:09:31;166607.44;;;10.87;100.00
45255;BME280;30989;52.078;21.014;2022-09-09T00:12:22;166579.28;;;10.77;100.00
45255;BME280;30989;52.078;21.014;2022-09-09T00:14:55;166581.97;;;10.78;100.00
45255;BME280;30989;52.078;21.014;2022-09-09T00:19:58;166575.28;;;10.75;100.00
45255;BME280;30989;52.078;21.014;2022-09-09T00:22:29;166587.34;;;10.80;100.00
45255;BME280;30989;52.078;21.014;2022-09-09T00:25:05;166598.03;;;10.84;100.00
45255;BME280;30989;52.078;21.014;2022-09-09T00:27:45;166588.66;;;10.80;100.00
45255;BME280;30989;52.078;21.014;2022-09-09T00:32:39;166595.38;;;10.83;100.00
45255;BME280;30989;52.078;21.014;2022-09-09T00:35:23;166586.00;;;10.79;100.00
45255;BME280;30989;52.078;21.014;2022-09-09T00:37:53;166603.41;;;10.86;100.00
45255;BME280;30989;52.078;21.014;2022-09-09T00:40:29;166603.41;;;10.86;100.00
45255;BME280;30989;52.078;21.014;2022-09-09T00:46:27;166612.78;;;10.89;100.00
45255;BME280;30989;52.078;21.014;2022-09-09T00:49:04;166606.09;;;10.87;100.00
45255;BME280;30989;52.078;21.014;2022-09-09T00:59:52;166619.47;;;10.92;100.00
45255;BME280;30989;52.078;21.014;2022-09-09T01:02:30;166622.16;;;10.93;100.00
45255;BME280;30989;52.078;21.014;2022-09-09T01:05:05;166638.25;;;10.99;100.00
45255;BME280;30989;52.078;21.014;2022-09-09T01:07:32;166612.78;;;10.89;100.00
45255;BME280;30989;52.078;21.014;2022-09-09T01:09:59;166620.81;;;10.92;100.00
45255;BME280;30989;52.078;21.014;2022-09-09T01:12:41;166644.94;;;11.02;100.00
45255;BME280;30989;52.078;21.014;2022-09-09T01:15:26;166636.91;;;10.98;100.00
45255;BME280;30989;52.078;21.014;2022-09-09T01:18:04;166654.31;;;11.05;100.00
45255;BME280;30989;52.078;21.014;2022-09-09T01:23:26;166599.38;;;10.84;100.00
45255;BME280;30989;52.078;21.014;2022-09-09T01:26:17;166611.44;;;10.89;100.00
45255;BME280;30989;52.078;21.014;2022-09-09T01:28:49;166604.75;;;10.86;100.00
45255;BME280;30989;52.078;21.014;2022-09-09T01:31:21;166623.50;;;10.93;100.00
45255;BME280;30989;52.078;21.014;2022-09-09T01:33:48;166620.81;;;10.92;100.00
45255;BME280;30989;52.078;21.014;2022-09-09T01:38:51;166638.25;;;10.99;100.00
45255;BME280;30989;52.078;21.014;2022-09-09T01:41:17;166626.19;;;10.94;100.00
45255;BME280;30989;52.078;21.014;2022-09-09T01:43:58;166648.97;;;11.03;100.00
45255;BME280;30989;52.078;21.014;2022-09-09T01:46:24;166646.28;;;11.02;100.00
45255;BME280;30989;52.078;21.014;2022-09-09T01:48:52;166659.66;;;11.07;100.00
45255;BME280;30989;52.078;21.014;2022-09-09T01:51:18;166661.00;;;11.08;100.00
45255;BME280;30989;52.078;21.014;2022-09-09T01:53:44;166667.72;;;11.10;100.00
45255;BME280;30989;52.078;21.014;2022-09-09T02:04:47;166659.66;;;11.07;100.00
45255;BME280;30989;52.078;21.014;2022-09-09T02:07:38;166673.06;;;11.12;100.00
45255;BME280;30989;52.078;21.014;2022-09-09T02:13:14;166686.47;;;11.17;100.00
45255;BME280;30989;52.078;21.014;2022-09-09T02:15:59;166675.75;;;11.13;100.00
45255;BME280;30989;52.078;21.014;2022-09-09T02:18:40;166670.38;;;11.11;100.00
45255;BME280;30989;52.078;21.014;2022-09-09T02:21:12;166657.00;;;11.06;100.00
45255;BME280;30989;52.078;21.014;2022-09-09T02:23:41;166665.03;;;11.09;100.00
45255;BME280;30989;52.078;21.014;2022-09-09T02:26:11;166661.00;;;11.08;100.00
45255;BME280;30989;52.078;21.014;2022-09-09T02:28:40;166667.72;;;11.10;100.00
45255;BME280;30989;52.078;21.014;2022-09-09T02:31:06;166665.03;;;11.09;100.00
45255;BME280;30989;52.078;21.014;2022-09-09T02:33:42;166667.72;;;11.10;100.00
45255;BME280;30989;52.078;21.014;2022-09-09T02:36:09;166665.03;;;11.09;100.00
45255;BME280;30989;52.078;21.014;2022-09-09T02:38:40;166661.00;;;11.08;100.00
45255;BME280;30989;52.078;21.014;2022-09-09T02:41:11;166682.44;;;11.16;100.00
45255;BME280;30989;52.078;21.014;2022-09-09T02:43:37;166674.41;;;11.13;100.00
45255;BME280;30989;52.078;21.014;2022-09-09T02:49:24;166648.97;;;11.03;100.00
45255;BME280;30989;52.078;21.014;2022-09-09T02:51:59;166667.72;;;11.10;100.00
45255;BME280;30989;52.078;21.014;2022-09-09T02:54:37;166663.69;;;11.09;100.00
45255;BME280;30989;52.078;21.014;2022-09-09T02:57:16;166678.44;;;11.14;100.00
45255;BME280;30989;52.078;21.014;2022-09-09T02:59:46;166686.47;;;11.17;100.00
45255;BME280;30989;52.078;21.014;2022-09-09T03:02:12;166686.47;;;11.17;100.00
45255;BME280;30989;52.078;21.014;2022-09-09T03:04:40;166686.47;;;11.17;100.00
45255;BME280;30989;52.078;21.014;2022-09-09T03:07:09;166683.78;;;11.16;100.00
45255;BME280;30989;52.078;21.014;2022-09-09T03:09:35;166675.75;;;11.13;100.00
45255;BME280;30989;52.078;21.014;2022-09-09T03:12:01;166689.16;;;11.18;100.00
45255;BME280;30989;52.078;21.014;2022-09-09T03:14:29;166667.72;;;11.10;100.00
45255;BME280;30989;52.078;21.014;2022-09-09T03:16:56;166661.00;;;11.08;100.00
45255;BME280;30989;52.078;21.014;2022-09-09T03:19:24;166657.00;;;11.06;100.00
45255;BME280;30989;52.078;21.014;2022-09-09T03:21:50;166655.66;;;11.06;100.00
45255;BME280;30989;52.078;21.014;2022-09-09T03:24:16;166635.56;;;10.98;100.00
45255;BME280;30989;52.078;21.014;2022-09-09T03:26:42;166640.91;;;11.00;100.00
45255;BME280;30989;52.078;21.014;2022-09-09T03:29:13;166646.28;;;11.02;100.00
45255;BME280;30989;52.078;21.014;2022-09-09T03:31:40;166647.63;;;11.03;100.00
45255;BME280;30989;52.078;21.014;2022-09-09T03:34:06;166644.94;;;11.02;100.00
45255;BME280;30989;52.078;21.014;2022-09-09T03:36:34;166616.81;;;10.91;100.00
45255;BME280;30989;52.078;21.014;2022-09-09T03:39:00;166618.16;;;10.91;100.00
45255;BME280;30989;52.078;21.014;2022-09-09T03:41:29;166640.91;;;11.00;100.00
45255;BME280;30989;52.078;21.014;2022-09-09T03:43:55;166652.97;;;11.05;100.00
45255;BME280;30989;52.078;21.014;2022-09-09T03:46:24;166635.56;;;10.98;100.00
45255;BME280;30989;52.078;21.014;2022-09-09T03:48:52;166667.72;;;11.10;100.00
45255;BME280;30989;52.078;21.014;2022-09-09T03:51:19;166665.03;;;11.09;100.00
45255;BME280;30989;52.078;21.014;2022-09-09T03:53:45;166627.53;;;10.95;100.00
45255;BME280;30989;52.078;21.014;2022-09-09T03:56:12;166595.38;;;10.83;100.00
45255;BME280;30989;52.078;21.014;2022-09-09T03:58:38;166620.81;;;10.92;100.00
45255;BME280;30989;52.078;21.014;2022-09-09T04:01:11;166639.56;;;11.00;100.00
45255;BME280;30989;52.078;21.014;2022-09-09T04:03:41;166632.88;;;10.97;100.00
45255;BME280;30989;52.078;21.014;2022-09-09T04:06:09;166620.81;;;10.92;100.00
45255;BME280;30989;52.078;21.014;2022-09-09T04:08:39;166616.81;;;10.91;100.00
45255;BME280;30989;52.078;21.014;2022-09-09T04:11:08;166639.56;;;11.00;100.00
45255;BME280;30989;52.078;21.014;2022-09-09T04:13:36;166638.25;;;10.99;100.00
45255;BME280;30989;52.078;21.014;2022-09-09T04:16:09;166635.56;;;10.98;100.00
45255;BME280;30989;52.078;21.014;2022-09-09T04:18:36;166657.00;;;11.06;100.00
45255;BME280;30989;52.078;21.014;2022-09-09T04:21:02;166655.66;;;11.06;100.00
45255;BME280;30989;52.078;21.014;2022-09-09T04:23:31;166673.06;;;11.12;100.00
45255;BME280;30989;52.078;21.014;2022-09-09T04:25:58;166690.50;;;11.19;100.00
45255;BME280;30989;52.078;21.014;2022-09-09T04:28:27;166685.13;;;11.17;100.00
45255;BME280;30989;52.078;21.014;2022-09-09T04:30:53;166643.59;;;11.01;100.00
45255;BME280;30989;52.078;21.014;2022-09-09T04:33:19;166644.94;;;11.02;100.00
45255;BME280;30989;52.078;21.014;2022-09-09T04:35:49;166675.75;;;11.13;100.00
45255;BME280;30989;52.078;21.014;2022-09-09T04:38:17;166663.69;;;11.09;100.00
45255;BME280;30989;52.078;21.014;2022-09-09T04:40:46;166651.63;;;11.04;100.00
45255;BME280;30989;52.078;21.014;2022-09-09T04:43:12;166658.34;;;11.07;100.00
45255;BME280;30989;52.078;21.014;2022-09-09T04:45:38;166675.75;;;11.13;100.00
45255;BME280;30989;52.078;21.014;2022-09-09T04:48:09;166685.13;;;11.17;100.00
45255;BME280;30989;52.078;21.014;2022-09-09T04:50:35;166677.09;;;11.14;100.00
45255;BME280;30989;52.078;21.014;2022-09-09T04:53:02;166669.06;;;11.11;100.00
45255;BME280;30989;52.078;21.014;2022-09-09T04:55:29;166686.47;;;11.17;100.00
45255;BME280;30989;52.078;21.014;2022-09-09T04:57:55;166699.88;;;11.22;100.00
45255;BME280;30989;52.078;21.014;2022-09-09T05:00:24;166705.22;;;11.24;100.00
45255;BME280;30989;52.078;21.014;2022-09-09T05:02:51;166710.59;;;11.26;100.00
45255;BME280;30989;52.078;21.014;2022-09-09T05:05:17;166719.97;;;11.30;100.00
45255;BME280;30989;52.078;21.014;2022-09-09T05:07:46;166697.19;;;11.21;100.00
45255;BME280;30989;52.078;21.014;2022-09-09T05:10:13;166726.66;;;11.33;100.00
45255;BME280;30989;52.078;21.014;2022-09-09T05:12:42;166742.75;;;11.39;100.00
45255;BME280;30989;52.078;21.014;2022-09-09T05:15:08;166748.09;;;11.41;100.00
45255;BME280;30989;52.078;21.014;2022-09-09T05:17:34;166756.16;;;11.44;100.00
45255;BME280;30989;52.078;21.014;2022-09-09T05:20:00;166761.50;;;11.46;100.00
45255;BME280;30989;52.078;21.014;2022-09-09T05:22:30;166757.50;;;11.44;100.00
45255;BME280;30989;52.078;21.014;2022-09-09T05:24:55;166756.16;;;11.44;100.00
45255;BME280;30989;52.078;21.014;2022-09-09T05:27:21;166764.19;;;11.47;100.00
45255;BME280;30989;52.078;21.014;2022-09-09T05:29:48;166773.56;;;11.50;100.00
45255;BME280;30989;52.078;21.014;2022-09-09T05:32:14;166778.94;;;11.52;100.00
45255;BME280;30989;52.078;21.014;2022-09-09T05:34:43;166752.13;;;11.42;100.00
45255;BME280;30989;52.078;21.014;2022-09-09T05:37:08;166740.06;;;11.38;100.00
45255;BME280;30989;52.078;21.014;2022-09-09T05:39:36;166711.94;;;11.27;100.00
45255;BME280;30989;52.078;21.014;2022-09-09T05:42:03;166753.47;;;11.43;100.00
45255;BME280;30989;52.078;21.014;2022-09-09T05:44:30;166768.22;;;11.48;100.00
45255;BME280;30989;52.078;21.014;2022-09-09T05:46:55;166757.50;;;11.44;100.00
45255;BME280;30989;52.078;21.014;2022-09-09T05:49:21;166782.94;;;11.54;100.00
45255;BME280;30989;52.078;21.014;2022-09-09T05:51:47;166789.66;;;11.56;100.00
45255;BME280;30989;52.078;21.014;2022-09-09T05:54:16;166772.22;;;11.50;100.00
45255;BME280;30989;52.078;21.014;2022-09-09T05:56:46;166797.69;;;11.59;100.00
45255;BME280;30989;52.078;21.014;2022-09-09T05:59:11;166781.59;;;11.53;100.00
45255;BME280;30989;52.078;21.014;2022-09-09T06:01:38;166809.75;;;11.64;100.00
45255;BME280;30989;52.078;21.014;2022-09-09T06:04:06;166819.13;;;11.68;100.00
45255;BME280;30989;52.078;21.014;2022-09-09T06:06:35;166801.72;;;11.61;100.00
45255;BME280;30989;52.078;21.014;2022-09-09T06:09:04;166815.13;;;11.66;100.00
45255;BME280;30989;52.078;21.014;2022-09-09T06:11:34;166831.19;;;11.72;100.00
45255;BME280;30989;52.078;21.014;2022-09-09T06:14:02;166817.78;;;11.67;100.00
45255;BME280;30989;52.078;21.014;2022-09-09T06:16:30;166807.06;;;11.63;100.00
45255;BME280;30989;52.078;21.014;2022-09-09T06:18:58;166824.50;;;11.70;100.00
45255;BME280;30989;52.078;21.014;2022-09-09T06:21:32;166821.81;;;11.69;100.00
45255;BME280;30989;52.078;21.014;2022-09-09T06:23:59;166831.19;;;11.72;100.00
45255;BME280;30989;52.078;21.014;2022-09-09T06:26:27;166815.13;;;11.66;100.00
45255;BME280;30989;52.078;21.014;2022-09-09T06:28:55;166823.16;;;11.69;100.00
45255;BME280;30989;52.078;21.014;2022-09-09T06:31:25;166820.47;;;11.68;100.00
45255;BME280;30989;52.078;21.014;2022-09-09T06:33:53;166832.53;;;11.73;100.00
45255;BME280;30989;52.078;21.014;2022-09-09T06:36:29;166831.19;;;11.72;100.00
45255;BME280;30989;52.078;21.014;2022-09-09T06:38:56;166833.88;;;11.73;100.00
45255;BME280;30989;52.078;21.014;2022-09-09T06:41:24;166854.03;;;11.81;100.00
45255;BME280;30989;52.078;21.014;2022-09-09T06:43:51;166858.06;;;11.82;100.00
45255;BME280;30989;52.078;21.014;2022-09-09T06:46:25;166872.78;;;11.88;100.00
45255;BME280;30989;52.078;21.014;2022-09-09T06:48:55;166884.88;;;11.92;100.00
45255;BME280;30989;52.078;21.014;2022-09-09T06:51:23;166906.31;;;12.01;100.00
45255;BME280;30989;52.078;21.014;2022-09-09T06:53:57;166895.59;;;11.97;100.00
45255;BME280;30989;52.078;21.014;2022-09-09T06:56:28;166918.38;;;12.05;100.00
45255;BME280;30989;52.078;21.014;2022-09-09T06:58:57;166925.06;;;12.08;100.00
45255;BME280;30989;52.078;21.014;2022-09-09T07:01:31;166902.28;;;11.99;100.00
45255;BME280;30989;52.078;21.014;2022-09-09T07:04:00;166926.41;;;12.08;100.00
45255;BME280;30989;52.078;21.014;2022-09-09T07:06:28;166917.03;;;12.05;100.00
45255;BME280;30989;52.078;21.014;2022-09-09T07:08:58;166933.13;;;12.11;100.00
45255;BME280;30989;52.078;21.014;2022-09-09T07:11:28;166927.75;;;12.09;100.00
45255;BME280;30989;52.078;21.014;2022-09-09T07:13:56;166921.06;;;12.06;100.00
45255;BME280;30989;52.078;21.014;2022-09-09T07:16:23;166935.81;;;12.12;100.00
45255;BME280;30989;52.078;21.014;2022-09-09T07:18:50;166954.56;;;12.19;100.00
45255;BME280;30989;52.078;21.014;2022-09-09T07:21:16;166950.56;;;12.17;100.00
45255;BME280;30989;52.078;21.014;2022-09-09T07:23:42;166989.44;;;12.32;100.00
45255;BME280;30989;52.078;21.014;2022-09-09T07:26:11;166981.38;;;12.29;100.00
45255;BME280;30989;52.078;21.014;2022-09-09T07:28:37;167004.19;;;12.38;100.00
45255;BME280;30989;52.078;21.014;2022-09-09T07:31:05;167016.25;;;12.42;100.00
45255;BME280;30989;52.078;21.014;2022-09-09T07:33:34;167033.69;;;12.49;100.00
45255;BME280;30989;52.078;21.014;2022-09-09T07:36:04;167037.69;;;12.50;100.00
45255;BME280;30989;52.078;21.014;2022-09-09T07:38:31;167056.47;;;12.57;100.00
45255;BME280;30989;52.078;21.014;2022-09-09T07:41:05;167069.88;;;12.63;100.00
45255;BME280;30989;52.078;21.014;2022-09-09T07:43:32;167077.94;;;12.66;100.00
45255;BME280;30989;52.078;21.014;2022-09-09T07:45:59;167083.28;;;12.68;100.00
45255;BME280;30989;52.078;21.014;2022-09-09T07:48:27;167092.69;;;12.71;100.00
45255;BME280;30989;52.078;21.014;2022-09-09T07:51:03;167081.97;;;12.67;100.00
45255;BME280;30989;52.078;21.014;2022-09-09T07:53:29;167088.66;;;12.70;100.00
45255;BME280;30989;52.078;21.014;2022-09-09T07:56:02;167083.28;;;12.68;100.00
45255;BME280;30989;52.078;21.014;2022-09-09T07:58:28;167075.25;;;12.65;100.00
45255;BME280;30989;52.078;21.014;2022-09-09T08:00:54;167079.28;;;12.66;100.00
45255;BME280;30989;52.078;21.014;2022-09-09T08:03:20;167061.84;;;12.59;100.00
45255;BME280;30989;52.078;21.014;2022-09-09T08:05:47;167056.47;;;12.57;100.00
45255;BME280;30989;52.078;21.014;2022-09-09T08:08:13;167056.47;;;12.57;100.00
45255;BME280;30989;52.078;21.014;2022-09-09T08:10:38;167067.19;;;12.62;100.00
45255;BME280;30989;52.078;21.014;2022-09-09T08:13:04;167071.22;;;12.63;100.00
45255;BME280;30989;52.078;21.014;2022-09-09T08:15:33;167080.63;;;12.67;100.00
45255;BME280;30989;52.078;21.014;2022-09-09T08:17:59;167106.09;;;12.76;100.00
45255;BME280;30989;52.078;21.014;2022-09-09T08:20:25;167107.44;;;12.77;100.00
45255;BME280;30989;52.078;21.014;2022-09-09T08:22:55;167145.00;;;12.91;100.00
45255;BME280;30989;52.078;21.014;2022-09-09T08:25:20;167142.31;;;12.90;100.00
45255;BME280;30989;52.078;21.014;2022-09-09T08:27:46;167163.78;;;12.98;100.00
45255;BME280;30989;52.078;21.014;2022-09-09T08:30:12;167195.97;;;13.10;100.00
45255;BME280;30989;52.078;21.014;2022-09-09T08:32:38;167204.00;;;13.13;100.00
45255;BME280;30989;52.078;21.014;2022-09-09T08:35:04;167232.22;;;13.24;100.00
45255;BME280;30989;52.078;21.014;2022-09-09T08:37:30;167268.47;;;13.38;100.00
45255;BME280;30989;52.078;21.014;2022-09-09T08:39:57;167273.81;;;13.40;100.00
45255;BME280;30989;52.078;21.014;2022-09-09T08:42:37;167276.50;;;13.41;100.00
45255;BME280;30989;52.078;21.014;2022-09-09T08:45:12;167289.94;;;13.46;100.00
45255;BME280;30989;52.078;21.014;2022-09-09T08:48:19;167302.00;;;13.50;100.00
45255;BME280;30989;52.078;21.014;2022-09-09T08:50:50;167310.06;;;13.53;100.00
45255;BME280;30989;52.078;21.014;2022-09-09T08:53:30;167303.34;;;13.51;100.00
45255;BME280;30989;52.078;21.014;2022-09-09T08:56:05;167318.09;;;13.57;100.00
45255;BME280;30989;52.078;21.014;2022-09-09T08:58:50;167326.16;;;13.60;100.00
45255;BME280;30989;52.078;21.014;2022-09-09T09:01:51;167322.13;;;13.58;100.00
45255;BME280;30989;52.078;21.014;2022-09-09T09:04:56;167303.34;;;13.51;100.00
45255;BME280;30989;52.078;21.014;2022-09-09T09:12:47;167303.34;;;13.51;100.00
45255;BME280;30989;52.078;21.014;2022-09-09T09:15:23;167295.28;;;13.48;100.00
45255;BME280;30989;52.078;21.014;2022-09-09T09:17:51;167306.03;;;13.52;100.00
45255;BME280;30989;52.078;21.014;2022-09-09T09:20:23;167322.13;;;13.58;100.00
45255;BME280;30989;52.078;21.014;2022-09-09T09:22:55;167338.22;;;13.64;100.00
45255;BME280;30989;52.078;21.014;2022-09-09T09:25:31;167358.34;;;13.72;100.00
45255;BME280;30989;52.078;21.014;2022-09-09T09:28:02;167377.13;;;13.79;100.00
45255;BME280;30989;52.078;21.014;2022-09-09T09:30:45;167367.75;;;13.75;100.00
45255;BME280;30989;52.078;21.014;2022-09-09T09:33:20;167390.56;;;13.84;100.00
45255;BME280;30989;52.078;21.014;2022-09-09T09:35:49;167386.53;;;13.82;100.00
45255;BME280;30989;52.078;21.014;2022-09-09T09:38:18;167395.94;;;13.86;100.00
45255;BME280;30989;52.078;21.014;2022-09-09T09:40:55;167390.56;;;13.84;100.00
45255;BME280;30989;52.078;21.014;2022-09-09T09:43:32;167383.84;;;13.81;100.00
45255;BME280;30989;52.078;21.014;2022-09-09T09:46:05;167383.84;;;13.81;100.00
45255;BME280;30989;52.078;21.014;2022-09-09T09:48:43;167379.81;;;13.80;100.00
45255;BME280;30989;52.078;21.014;2022-09-09T09:51:13;167365.06;;;13.74;100.00
45255;BME280;30989;52.078;21.014;2022-09-09T09:53:42;167391.91;;;13.84;100.00
45255;BME280;30989;52.078;21.014;2022-09-09T09:56:12;167397.28;;;13.86;100.00
45255;BME280;30989;52.078;21.014;2022-09-09T10:01:31;167389.22;;;13.83;100.00
45255;BME280;30989;52.078;21.014;2022-09-09T10:04:13;167405.31;;;13.90;100.00
45255;BME280;30989;52.078;21.014;2022-09-09T10:06:39;167418.75;;;13.95;100.00
45255;BME280;30989;52.078;21.014;2022-09-09T10:09:26;167402.66;;;13.88;100.00
45255;BME280;30989;52.078;21.014;2022-09-09T10:20:18;167389.22;;;13.83;100.00
45255;BME280;30989;52.078;21.014;2022-09-09T10:22:52;167397.28;;;13.86;100.00
45255;BME280;30989;52.078;21.014;2022-09-09T10:25:30;167426.81;;;13.98;100.00
45255;BME280;30989;52.078;21.014;2022-09-09T10:31:44;167433.50;;;14.00;100.00
45255;BME280;30989;52.078;21.014;2022-09-09T10:36:47;167437.53;;;14.02;100.00
45255;BME280;30989;52.078;21.014;2022-09-09T10:42:06;167445.59;;;14.05;100.00
45255;BME280;30989;52.078;21.014;2022-09-09T10:45:02;167448.28;;;14.06;100.00
45255;BME280;30989;52.078;21.014;2022-09-09T10:48:02;167401.31;;;13.88;100.00
45255;BME280;30989;52.078;21.014;2022-09-09T10:56:10;167416.06;;;13.94;100.00
45255;BME280;30989;52.078;21.014;2022-09-09T11:01:17;167433.50;;;14.00;100.00
45255;BME280;30989;52.078;21.014;2022-09-09T11:03:47;167450.97;;;14.07;100.00
45255;BME280;30989;52.078;21.014;2022-09-09T11:06:25;167456.31;;;14.09;100.00
45255;BME280;30989;52.078;21.014;2022-09-09T11:08:56;167453.66;;;14.08;100.00
45255;BME280;30989;52.078;21.014;2022-09-09T11:11:42;167472.44;;;14.15;100.00
45255;BME280;30989;52.078;21.014;2022-09-09T11:14:46;167461.69;;;14.11;100.00
45255;BME280;30989;52.078;21.014;2022-09-09T11:17:23;167456.31;;;14.09;100.00
45255;BME280;30989;52.078;21.014;2022-09-09T11:19:53;167457.66;;;14.09;100.00
45255;BME280;30989;52.078;21.014;2022-09-09T11:22:36;167459.00;;;14.10;100.00
45255;BME280;30989;52.078;21.014;2022-09-09T11:38:46;167481.84;;;14.18;100.00
45255;BME280;30989;52.078;21.014;2022-09-09T11:41:13;167475.13;;;14.16;100.00
45255;BME280;30989;52.078;21.014;2022-09-09T11:43:45;167445.59;;;14.05;100.00
45255;BME280;30989;52.078;21.014;2022-09-09T11:46:14;167455.00;;;14.08;100.00
45255;BME280;30989;52.078;21.014;2022-09-09T11:48:45;167479.16;;;14.17;100.00
45255;BME280;30989;52.078;21.014;2022-09-09T11:54:00;167485.84;;;14.20;100.00
45255;BME280;30989;52.078;21.014;2022-09-09T11:58:56;167473.78;;;14.15;100.00
45255;BME280;30989;52.078;21.014;2022-09-09T12:04:17;167489.88;;;14.22;100.00
45255;BME280;30989;52.078;21.014;2022-09-09T12:06:53;167500.63;;;14.26;100.00
45255;BME280;30989;52.078;21.014;2022-09-09T12:09:38;167524.78;;;14.35;100.00
45255;BME280;30989;52.078;21.014;2022-09-09T12:17:42;167504.66;;;14.27;100.00
45255;BME280;30989;52.078;21.014;2022-09-09T12:20:33;167480.50;;;14.18;100.00
45255;BME280;30989;52.078;21.014;2022-09-09T12:25:57;167504.66;;;14.27;100.00
45255;BME280;30989;52.078;21.014;2022-09-09T12:33:37;167527.47;;;14.36;100.00
45255;BME280;30989;52.078;21.014;2022-09-09T12:36:12;167518.06;;;14.32;100.00
45255;BME280;30989;52.078;21.014;2022-09-09T12:38:40;167518.06;;;14.32;100.00
45255;BME280;30989;52.078;21.014;2022-09-09T12:41:15;167555.72;;;14.46;100.00
45255;BME280;30989;52.078;21.014;2022-09-09T12:43:44;167569.13;;;14.51;100.00
45255;BME280;30989;52.078;21.014;2022-09-09T12:46:18;167571.81;;;14.52;100.00
45255;BME280;30989;52.078;21.014;2022-09-09T12:48:46;167597.34;;;14.62;100.00
45255;BME280;30989;52.078;21.014;2022-09-09T12:51:31;167618.81;;;14.70;100.00
45255;BME280;30989;52.078;21.014;2022-09-09T12:53:58;167625.53;;;14.73;100.00
45255;BME280;30989;52.078;21.014;2022-09-09T12:56:27;167628.22;;;14.74;100.00
45255;BME280;30989;52.078;21.014;2022-09-09T12:58:55;167636.28;;;14.77;100.00
45255;BME280;30989;52.078;21.014;2022-09-09T13:01:23;167625.53;;;14.73;100.00
45255;BME280;30989;52.078;21.014;2022-09-09T13:03:49;167616.13;;;14.69;100.00
45255;BME280;30989;52.078;21.014;2022-09-09T13:06:26;167606.75;;;14.66;100.00
45255;BME280;30989;52.078;21.014;2022-09-09T13:08:54;167577.19;;;14.55;100.00
45255;BME280;30989;52.078;21.014;2022-09-09T13:11:43;167569.13;;;14.51;100.00
45255;BME280;30989;52.078;21.014;2022-09-09T13:14:29;167518.06;;;14.32;100.00
45255;BME280;30989;52.078;21.014;2022-09-09T13:16:57;167512.72;;;14.30;100.00
45255;BME280;30989;52.078;21.014;2022-09-09T13:19:23;167497.94;;;14.25;100.00
45255;BME280;30989;52.078;21.014;2022-09-09T13:21:54;167512.72;;;14.30;100.00
45255;BME280;30989;52.078;21.014;2022-09-09T13:24:31;167516.72;;;14.32;100.00
45255;BME280;30989;52.078;21.014;2022-09-09T13:27:03;167524.78;;;14.35;100.00
45255;BME280;30989;52.078;21.014;2022-09-09T13:29:30;167550.34;;;14.44;100.00
45255;BME280;30989;52.078;21.014;2022-09-09T13:32:07;167549.00;;;14.44;100.00
45255;BME280;30989;52.078;21.014;2022-09-09T13:34:38;167543.63;;;14.42;100.00
45255;BME280;30989;52.078;21.014;2022-09-09T13:37:05;167531.50;;;14.37;100.00
45255;BME280;30989;52.078;21.014;2022-09-09T13:39:36;167518.06;;;14.32;100.00
45255;BME280;30989;52.078;21.014;2022-09-09T13:42:03;167511.38;;;14.30;100.00
45255;BME280;30989;52.078;21.014;2022-09-09T13:44:33;167530.16;;;14.37;100.00
45255;BME280;30989;52.078;21.014;2022-09-09T13:47:02;167527.47;;;14.36;100.00
45255;BME280;30989;52.078;21.014;2022-09-09T13:49:31;167522.09;;;14.34;100.00
45255;BME280;30989;52.078;21.014;2022-09-09T13:52:09;167510.03;;;14.29;100.00
45255;BME280;30989;52.078;21.014;2022-09-09T13:54:35;167510.03;;;14.29;100.00
45255;BME280;30989;52.078;21.014;2022-09-09T13:57:00;167514.03;;;14.31;100.00
45255;BME280;30989;52.078;21.014;2022-09-09T13:59:27;167495.25;;;14.24;100.00
45255;BME280;30989;52.078;21.014;2022-09-09T14:01:53;167503.31;;;14.27;100.00
45255;BME280;30989;52.078;21.014;2022-09-09T14:04:19;167480.50;;;14.18;100.00
45255;BME280;30989;52.078;21.014;2022-09-09T14:06:50;167485.84;;;14.20;100.00
45255;BME280;30989;52.078;21.014;2022-09-09T14:09:17;167480.50;;;14.18;100.00
45255;BME280;30989;52.078;21.014;2022-09-09T14:11:44;167479.16;;;14.17;100.00
45255;BME280;30989;52.078;21.014;2022-09-09T14:14:13;167457.66;;;14.09;100.00
45255;BME280;30989;52.078;21.014;2022-09-09T14:16:38;167464.38;;;14.12;100.00
45255;BME280;30989;52.078;21.014;2022-09-09T14:19:04;167424.13;;;13.97;100.00
45255;BME280;30989;52.078;21.014;2022-09-09T14:21:29;167450.97;;;14.07;100.00
45255;BME280;30989;52.078;21.014;2022-09-09T14:23:55;167437.53;;;14.02;100.00
45255;BME280;30989;52.078;21.014;2022-09-09T14:26:23;167444.25;;;14.04;100.00
45255;BME280;30989;52.078;21.014;2022-09-09T14:28:49;167449.63;;;14.06;100.00
45255;BME280;30989;52.078;21.014;2022-09-09T14:31:15;167465.72;;;14.12;100.00
45255;BME280;30989;52.078;21.014;2022-09-09T14:33:43;167461.69;;;14.11;100.00
45255;BME280;30989;52.078;21.014;2022-09-09T14:36:09;167487.19;;;14.20;100.00
45255;BME280;30989;52.078;21.014;2022-09-09T14:38:36;167471.09;;;14.14;100.00
45255;BME280;30989;52.078;21.014;2022-09-09T14:41:15;167507.34;;;14.28;100.00